Papillion, Nebraska
Current Conditions -  °F | °C
As of 1:35 AM on Sunday 23 Nov 2014 (Local Time) from KMLE Reporting Station
Overcast Overcast  
Wind Chill: 55°   Ceiling: 2900
Heat Index: 55°   Visibility: 10mi
Dew Point: 52°   Wind: 7mph
Humidity: 89%   Direction: 160°SSE
Pressure: 29.52"   Gusts: NA
Location:  41.16°N, 96.04°W
Report Text: KMLE 230735Z AUTO 16006KT 10SM SCT011 OVC029 13/11 A2952 RMK AO2 T01280111
Loading
Personal Weather Stations






























Interactive Weather Map New forecast layout! Learn more

10-Day Weather Forecast

Advertisements
Track Severe Weather on mobile